sensor_id;sensor_type;location;lat;lon;timestamp;P1;durP1;ratioP1;P2;durP2;ratioP2
7080;SDS011;3582;51.506;11.948;2022-12-24T00:02:00;6.55;;;5.95;;
7080;SDS011;3582;51.506;11.948;2022-12-24T00:04:26;6.50;;;5.90;;
7080;SDS011;3582;51.506;11.948;2022-12-24T00:06:52;5.30;;;4.73;;
7080;SDS011;3582;51.506;11.948;2022-12-24T00:09:18;4.30;;;3.80;;
7080;SDS011;3582;51.506;11.948;2022-12-24T00:11:43;6.90;;;4.33;;
7080;SDS011;3582;51.506;11.948;2022-12-24T00:14:09;4.47;;;4.07;;
7080;SDS011;3582;51.506;11.948;2022-12-24T00:16:35;4.90;;;3.73;;
7080;SDS011;3582;51.506;11.948;2022-12-24T00:19:01;3.77;;;3.47;;
7080;SDS011;3582;51.506;11.948;2022-12-24T00:21:27;3.93;;;3.03;;
7080;SDS011;3582;51.506;11.948;2022-12-24T00:23:53;2.70;;;2.50;;
7080;SDS011;3582;51.506;11.948;2022-12-24T00:26:19;2.60;;;2.40;;
7080;SDS011;3582;51.506;11.948;2022-12-24T00:28:45;3.70;;;2.30;;
7080;SDS011;3582;51.506;11.948;2022-12-24T00:31:12;5.13;;;2.37;;
7080;SDS011;3582;51.506;11.948;2022-12-24T00:33:39;6.18;;;2.28;;
7080;SDS011;3582;51.506;11.948;2022-12-24T00:36:05;3.38;;;2.40;;
7080;SDS011;3582;51.506;11.948;2022-12-24T00:38:31;3.05;;;2.38;;
7080;SDS011;3582;51.506;11.948;2022-12-24T00:41:01;2.50;;;2.30;;
7080;SDS011;3582;51.506;11.948;2022-12-24T00:43:28;2.35;;;2.15;;
7080;SDS011;3582;51.506;11.948;2022-12-24T00:45:54;2.65;;;2.45;;
7080;SDS011;3582;51.506;11.948;2022-12-24T00:48:20;4.80;;;2.37;;
7080;SDS011;3582;51.506;11.948;2022-12-24T00:50:46;3.15;;;2.92;;
7080;SDS011;3582;51.506;11.948;2022-12-24T00:53:12;5.20;;;2.40;;
7080;SDS011;3582;51.506;11.948;2022-12-24T00:55:38;5.57;;;5.07;;
7080;SDS011;3582;51.506;11.948;2022-12-24T00:58:04;4.10;;;2.87;;
7080;SDS011;3582;51.506;11.948;2022-12-24T01:00:30;7.70;;;3.40;;
7080;SDS011;3582;51.506;11.948;2022-12-24T01:02:56;2.43;;;2.10;;
7080;SDS011;3582;51.506;11.948;2022-12-24T01:05:22;4.70;;;2.60;;
7080;SDS011;3582;51.506;11.948;2022-12-24T01:07:48;2.97;;;2.37;;
7080;SDS011;3582;51.506;11.948;2022-12-24T01:10:15;3.70;;;2.20;;
7080;SDS011;3582;51.506;11.948;2022-12-24T01:12:42;4.00;;;2.60;;
7080;SDS011;3582;51.506;11.948;2022-12-24T01:15:08;5.65;;;2.83;;
7080;SDS011;3582;51.506;11.948;2022-12-24T01:17:34;4.97;;;2.60;;
7080;SDS011;3582;51.506;11.948;2022-12-24T01:20:00;1.77;;;1.67;;
7080;SDS011;3582;51.506;11.948;2022-12-24T01:22:26;3.50;;;2.47;;
7080;SDS011;3582;51.506;11.948;2022-12-24T01:24:52;2.83;;;2.30;;
7080;SDS011;3582;51.506;11.948;2022-12-24T01:27:18;3.83;;;2.83;;
7080;SDS011;3582;51.506;11.948;2022-12-24T01:29:44;2.73;;;2.53;;
7080;SDS011;3582;51.506;11.948;2022-12-24T01:32:10;2.37;;;2.20;;
7080;SDS011;3582;51.506;11.948;2022-12-24T01:34:36;3.50;;;2.30;;
7080;SDS011;3582;51.506;11.948;2022-12-24T01:37:02;4.45;;;3.05;;
7080;SDS011;3582;51.506;11.948;2022-12-24T01:39:28;3.33;;;1.70;;
7080;SDS011;3582;51.506;11.948;2022-12-24T01:41:54;2.93;;;2.40;;
7080;SDS011;3582;51.506;11.948;2022-12-24T01:44:39;4.18;;;2.70;;
7080;SDS011;3582;51.506;11.948;2022-12-24T01:49:40;4.07;;;2.65;;
7080;SDS011;3582;51.506;11.948;2022-12-24T01:52:16;3.92;;;3.08;;
7080;SDS011;3582;51.506;11.948;2022-12-24T01:54:45;4.95;;;2.25;;
7080;SDS011;3582;51.506;11.948;2022-12-24T01:57:14;8.45;;;2.45;;
7080;SDS011;3582;51.506;11.948;2022-12-24T01:59:41;2.83;;;1.80;;
7080;SDS011;3582;51.506;11.948;2022-12-24T02:02:08;2.83;;;2.47;;
7080;SDS011;3582;51.506;11.948;2022-12-24T02:07:16;6.35;;;2.65;;
7080;SDS011;3582;51.506;11.948;2022-12-24T02:09:42;3.73;;;2.17;;
7080;SDS011;3582;51.506;11.948;2022-12-24T02:12:08;5.28;;;2.45;;
7080;SDS011;3582;51.506;11.948;2022-12-24T02:14:34;4.50;;;2.35;;
7080;SDS011;3582;51.506;11.948;2022-12-24T02:19:36;12.87;;;2.97;;
7080;SDS011;3582;51.506;11.948;2022-12-24T02:24:42;7.75;;;3.10;;
7080;SDS011;3582;51.506;11.948;2022-12-24T02:29:58;11.50;;;4.53;;
7080;SDS011;3582;51.506;11.948;2022-12-24T02:32:29;7.10;;;3.53;;
7080;SDS011;3582;51.506;11.948;2022-12-24T02:37:30;11.02;;;4.40;;
7080;SDS011;3582;51.506;11.948;2022-12-24T02:42:36;8.73;;;4.40;;
7080;SDS011;3582;51.506;11.948;2022-12-24T02:45:07;9.85;;;4.40;;
7080;SDS011;3582;51.506;11.948;2022-12-24T02:47:34;6.68;;;4.00;;
7080;SDS011;3582;51.506;11.948;2022-12-24T02:50:01;10.00;;;3.50;;
7080;SDS011;3582;51.506;11.948;2022-12-24T02:52:37;10.20;;;3.67;;
7080;SDS011;3582;51.506;11.948;2022-12-24T02:55:15;7.65;;;3.65;;
7080;SDS011;3582;51.506;11.948;2022-12-24T02:57:45;8.43;;;3.17;;
7080;SDS011;3582;51.506;11.948;2022-12-24T03:00:14;7.70;;;3.42;;
7080;SDS011;3582;51.506;11.948;2022-12-24T03:02:48;8.20;;;4.00;;
7080;SDS011;3582;51.506;11.948;2022-12-24T03:07:58;11.57;;;3.90;;
7080;SDS011;3582;51.506;11.948;2022-12-24T03:13:14;6.38;;;2.95;;
7080;SDS011;3582;51.506;11.948;2022-12-24T03:15:40;11.18;;;3.38;;
7080;SDS011;3582;51.506;11.948;2022-12-24T03:18:08;17.50;;;3.88;;
7080;SDS011;3582;51.506;11.948;2022-12-24T03:20:39;8.02;;;3.35;;
7080;SDS011;3582;51.506;11.948;2022-12-24T03:23:05;7.53;;;2.78;;
7080;SDS011;3582;51.506;11.948;2022-12-24T03:25:31;5.33;;;3.33;;
7080;SDS011;3582;51.506;11.948;2022-12-24T03:27:58;5.10;;;3.05;;
7080;SDS011;3582;51.506;11.948;2022-12-24T03:30:26;7.10;;;2.70;;
7080;SDS011;3582;51.506;11.948;2022-12-24T03:32:52;4.03;;;2.87;;
7080;SDS011;3582;51.506;11.948;2022-12-24T03:35:18;6.45;;;2.45;;
7080;SDS011;3582;51.506;11.948;2022-12-24T03:37:44;6.17;;;2.87;;
7080;SDS011;3582;51.506;11.948;2022-12-24T03:40:10;3.53;;;2.43;;
7080;SDS011;3582;51.506;11.948;2022-12-24T03:42:36;7.80;;;2.17;;
7080;SDS011;3582;51.506;11.948;2022-12-24T03:45:02;8.50;;;2.90;;
7080;SDS011;3582;51.506;11.948;2022-12-24T03:47:28;8.70;;;2.70;;
7080;SDS011;3582;51.506;11.948;2022-12-24T03:49:55;5.55;;;2.50;;
7080;SDS011;3582;51.506;11.948;2022-12-24T03:52:21;3.80;;;2.57;;
7080;SDS011;3582;51.506;11.948;2022-12-24T03:54:47;4.60;;;2.60;;
7080;SDS011;3582;51.506;11.948;2022-12-24T03:57:13;7.70;;;2.60;;
7080;SDS011;3582;51.506;11.948;2022-12-24T03:59:38;4.07;;;2.93;;
7080;SDS011;3582;51.506;11.948;2022-12-24T04:02:04;9.80;;;2.53;;
7080;SDS011;3582;51.506;11.948;2022-12-24T04:04:30;6.23;;;2.20;;
7080;SDS011;3582;51.506;11.948;2022-12-24T04:06:57;4.60;;;2.17;;
7080;SDS011;3582;51.506;11.948;2022-12-24T04:09:23;4.72;;;3.08;;
7080;SDS011;3582;51.506;11.948;2022-12-24T04:11:49;3.40;;;2.00;;
7080;SDS011;3582;51.506;11.948;2022-12-24T04:14:15;3.57;;;2.40;;
7080;SDS011;3582;51.506;11.948;2022-12-24T04:16:41;13.80;;;4.63;;
7080;SDS011;3582;51.506;11.948;2022-12-24T04:19:07;5.23;;;2.10;;
7080;SDS011;3582;51.506;11.948;2022-12-24T04:21:33;2.77;;;2.40;;
7080;SDS011;3582;51.506;11.948;2022-12-24T04:23:59;7.63;;;2.60;;
7080;SDS011;3582;51.506;11.948;2022-12-24T04:26:25;3.83;;;2.43;;
7080;SDS011;3582;51.506;11.948;2022-12-24T04:28:51;2.03;;;1.83;;
7080;SDS011;3582;51.506;11.948;2022-12-24T04:31:17;7.35;;;2.58;;
7080;SDS011;3582;51.506;11.948;2022-12-24T04:33:43;3.93;;;3.10;;
7080;SDS011;3582;51.506;11.948;2022-12-24T04:36:13;8.57;;;2.45;;
7080;SDS011;3582;51.506;11.948;2022-12-24T04:38:41;5.15;;;2.05;;
7080;SDS011;3582;51.506;11.948;2022-12-24T04:41:09;4.13;;;2.38;;
7080;SDS011;3582;51.506;11.948;2022-12-24T04:43:35;4.18;;;3.75;;
7080;SDS011;3582;51.506;11.948;2022-12-24T04:46:04;5.83;;;2.40;;
7080;SDS011;3582;51.506;11.948;2022-12-24T04:48:31;3.47;;;2.10;;
7080;SDS011;3582;51.506;11.948;2022-12-24T04:50:56;11.40;;;2.93;;
7080;SDS011;3582;51.506;11.948;2022-12-24T04:53:22;5.30;;;3.10;;
7080;SDS011;3582;51.506;11.948;2022-12-24T04:55:48;5.95;;;3.80;;
7080;SDS011;3582;51.506;11.948;2022-12-24T04:58:14;5.50;;;2.50;;
7080;SDS011;3582;51.506;11.948;2022-12-24T05:00:40;2.97;;;2.13;;
7080;SDS011;3582;51.506;11.948;2022-12-24T05:03:06;4.90;;;2.40;;
7080;SDS011;3582;51.506;11.948;2022-12-24T05:05:32;2.23;;;2.00;;
7080;SDS011;3582;51.506;11.948;2022-12-24T05:07:58;3.93;;;2.13;;
7080;SDS011;3582;51.506;11.948;2022-12-24T05:10:24;4.73;;;2.00;;
7080;SDS011;3582;51.506;11.948;2022-12-24T05:12:50;2.67;;;2.47;;
7080;SDS011;3582;51.506;11.948;2022-12-24T05:15:16;6.03;;;2.37;;
7080;SDS011;3582;51.506;11.948;2022-12-24T05:17:42;3.43;;;2.50;;
7080;SDS011;3582;51.506;11.948;2022-12-24T05:20:08;5.53;;;2.30;;
7080;SDS011;3582;51.506;11.948;2022-12-24T05:22:34;4.23;;;2.10;;
7080;SDS011;3582;51.506;11.948;2022-12-24T05:25:18;7.05;;;2.42;;
7080;SDS011;3582;51.506;11.948;2022-12-24T05:28:03;4.50;;;2.42;;
7080;SDS011;3582;51.506;11.948;2022-12-24T05:30:29;8.17;;;2.90;;
7080;SDS011;3582;51.506;11.948;2022-12-24T05:32:55;4.40;;;2.23;;
7080;SDS011;3582;51.506;11.948;2022-12-24T05:35:20;4.00;;;2.47;;
7080;SDS011;3582;51.506;11.948;2022-12-24T05:37:46;9.87;;;2.83;;
7080;SDS011;3582;51.506;11.948;2022-12-24T05:40:12;7.33;;;3.17;;
7080;SDS011;3582;51.506;11.948;2022-12-24T05:42:38;4.20;;;2.67;;
7080;SDS011;3582;51.506;11.948;2022-12-24T05:45:04;4.10;;;2.10;;
7080;SDS011;3582;51.506;11.948;2022-12-24T05:47:31;10.18;;;3.17;;
7080;SDS011;3582;51.506;11.948;2022-12-24T05:49:56;5.20;;;1.93;;
7080;SDS011;3582;51.506;11.948;2022-12-24T05:52:22;11.80;;;3.00;;
7080;SDS011;3582;51.506;11.948;2022-12-24T05:54:48;9.00;;;3.77;;
7080;SDS011;3582;51.506;11.948;2022-12-24T05:57:15;10.30;;;5.50;;
7080;SDS011;3582;51.506;11.948;2022-12-24T05:59:41;5.90;;;2.90;;
7080;SDS011;3582;51.506;11.948;2022-12-24T06:02:07;8.87;;;4.93;;
7080;SDS011;3582;51.506;11.948;2022-12-24T06:04:33;8.67;;;2.90;;
7080;SDS011;3582;51.506;11.948;2022-12-24T06:06:58;6.00;;;3.10;;
7080;SDS011;3582;51.506;11.948;2022-12-24T06:09:24;6.00;;;3.93;;
7080;SDS011;3582;51.506;11.948;2022-12-24T06:11:50;10.63;;;3.17;;
7080;SDS011;3582;51.506;11.948;2022-12-24T06:14:16;3.70;;;2.83;;
7080;SDS011;3582;51.506;11.948;2022-12-24T06:16:42;6.73;;;3.50;;
7080;SDS011;3582;51.506;11.948;2022-12-24T06:19:08;10.13;;;4.60;;
7080;SDS011;3582;51.506;11.948;2022-12-24T06:21:34;4.97;;;3.03;;
7080;SDS011;3582;51.506;11.948;2022-12-24T06:24:00;6.27;;;2.90;;
7080;SDS011;3582;51.506;11.948;2022-12-24T06:26:26;7.53;;;2.70;;
7080;SDS011;3582;51.506;11.948;2022-12-24T06:28:52;9.43;;;3.55;;
7080;SDS011;3582;51.506;11.948;2022-12-24T06:31:19;6.37;;;3.20;;
7080;SDS011;3582;51.506;11.948;2022-12-24T06:33:45;5.70;;;3.58;;
7080;SDS011;3582;51.506;11.948;2022-12-24T06:36:14;8.87;;;3.37;;
7080;SDS011;3582;51.506;11.948;2022-12-24T06:38:40;8.50;;;4.07;;
7080;SDS011;3582;51.506;11.948;2022-12-24T06:41:07;9.45;;;4.38;;
7080;SDS011;3582;51.506;11.948;2022-12-24T06:43:33;4.15;;;2.83;;
7080;SDS011;3582;51.506;11.948;2022-12-24T06:45:59;7.80;;;3.22;;
7080;SDS011;3582;51.506;11.948;2022-12-24T06:48:25;4.95;;;3.00;;
7080;SDS011;3582;51.506;11.948;2022-12-24T06:50:51;7.27;;;3.80;;
7080;SDS011;3582;51.506;11.948;2022-12-24T06:53:17;10.00;;;3.53;;
7080;SDS011;3582;51.506;11.948;2022-12-24T06:55:43;4.25;;;3.53;;
7080;SDS011;3582;51.506;11.948;2022-12-24T06:58:09;10.07;;;5.03;;
7080;SDS011;3582;51.506;11.948;2022-12-24T07:00:35;4.20;;;2.97;;
7080;SDS011;3582;51.506;11.948;2022-12-24T07:03:01;11.00;;;3.83;;
7080;SDS011;3582;51.506;11.948;2022-12-24T07:05:27;9.00;;;3.60;;
7080;SDS011;3582;51.506;11.948;2022-12-24T07:07:53;7.25;;;3.17;;
7080;SDS011;3582;51.506;11.948;2022-12-24T07:10:19;7.40;;;3.50;;
7080;SDS011;3582;51.506;11.948;2022-12-24T07:12:45;8.13;;;3.30;;
7080;SDS011;3582;51.506;11.948;2022-12-24T07:15:12;11.50;;;3.67;;
7080;SDS011;3582;51.506;11.948;2022-12-24T07:17:38;8.07;;;3.60;;
7080;SDS011;3582;51.506;11.948;2022-12-24T07:20:04;8.13;;;2.97;;
7080;SDS011;3582;51.506;11.948;2022-12-24T07:22:30;7.32;;;3.28;;
7080;SDS011;3582;51.506;11.948;2022-12-24T07:24:56;13.40;;;4.27;;
7080;SDS011;3582;51.506;11.948;2022-12-24T07:27:23;11.40;;;4.07;;
7080;SDS011;3582;51.506;11.948;2022-12-24T07:29:48;7.53;;;3.23;;
7080;SDS011;3582;51.506;11.948;2022-12-24T07:32:14;15.40;;;4.00;;
7080;SDS011;3582;51.506;11.948;2022-12-24T07:34:40;8.43;;;3.87;;
7080;SDS011;3582;51.506;11.948;2022-12-24T07:37:06;8.70;;;3.80;;
7080;SDS011;3582;51.506;11.948;2022-12-24T07:39:32;10.60;;;3.87;;
7080;SDS011;3582;51.506;11.948;2022-12-24T07:41:58;6.20;;;2.90;;
7080;SDS011;3582;51.506;11.948;2022-12-24T07:44:24;14.43;;;3.90;;
7080;SDS011;3582;51.506;11.948;2022-12-24T07:46:50;22.03;;;4.27;;
7080;SDS011;3582;51.506;11.948;2022-12-24T07:49:16;12.30;;;3.80;;
7080;SDS011;3582;51.506;11.948;2022-12-24T07:51:42;8.50;;;4.50;;
7080;SDS011;3582;51.506;11.948;2022-12-24T07:54:08;10.70;;;3.30;;
7080;SDS011;3582;51.506;11.948;2022-12-24T07:56:34;4.80;;;3.10;;
7080;SDS011;3582;51.506;11.948;2022-12-24T07:59:00;8.73;;;3.17;;
7080;SDS011;3582;51.506;11.948;2022-12-24T08:01:26;4.53;;;2.90;;
7080;SDS011;3582;51.506;11.948;2022-12-24T08:03:52;12.00;;;4.03;;
7080;SDS011;3582;51.506;11.948;2022-12-24T08:06:18;5.28;;;3.55;;
7080;SDS011;3582;51.506;11.948;2022-12-24T08:08:44;10.52;;;3.75;;
7080;SDS011;3582;51.506;11.948;2022-12-24T08:11:10;6.70;;;3.33;;
7080;SDS011;3582;51.506;11.948;2022-12-24T08:13:36;20.95;;;3.90;;
7080;SDS011;3582;51.506;11.948;2022-12-24T08:16:02;7.80;;;3.77;;
7080;SDS011;3582;51.506;11.948;2022-12-24T08:18:29;9.00;;;3.40;;
7080;SDS011;3582;51.506;11.948;2022-12-24T08:20:55;7.90;;;3.27;;
7080;SDS011;3582;51.506;11.948;2022-12-24T08:23:20;8.90;;;3.53;;
7080;SDS011;3582;51.506;11.948;2022-12-24T08:25:47;5.45;;;3.15;;
7080;SDS011;3582;51.506;11.948;2022-12-24T08:28:14;8.07;;;3.13;;
7080;SDS011;3582;51.506;11.948;2022-12-24T08:30:41;12.65;;;4.03;;
7080;SDS011;3582;51.506;11.948;2022-12-24T08:33:07;17.70;;;3.90;;
7080;SDS011;3582;51.506;11.948;2022-12-24T08:35:33;11.97;;;3.53;;
7080;SDS011;3582;51.506;11.948;2022-12-24T08:37:59;7.15;;;3.47;;
7080;SDS011;3582;51.506;11.948;2022-12-24T08:40:25;7.37;;;3.73;;
7080;SDS011;3582;51.506;11.948;2022-12-24T08:42:50;7.67;;;3.57;;
7080;SDS011;3582;51.506;11.948;2022-12-24T08:45:17;7.37;;;2.70;;
7080;SDS011;3582;51.506;11.948;2022-12-24T08:47:43;8.13;;;3.75;;
7080;SDS011;3582;51.506;11.948;2022-12-24T08:50:09;5.10;;;2.63;;
7080;SDS011;3582;51.506;11.948;2022-12-24T08:52:35;10.93;;;3.38;;
7080;SDS011;3582;51.506;11.948;2022-12-24T08:55:01;8.37;;;2.80;;
7080;SDS011;3582;51.506;11.948;2022-12-24T08:57:28;7.03;;;3.40;;
7080;SDS011;3582;51.506;11.948;2022-12-24T08:59:53;9.80;;;4.23;;
7080;SDS011;3582;51.506;11.948;2022-12-24T09:02:19;10.88;;;4.07;;
7080;SDS011;3582;51.506;11.948;2022-12-24T09:04:45;25.40;;;5.20;;
7080;SDS011;3582;51.506;11.948;2022-12-24T09:07:11;10.60;;;4.00;;
7080;SDS011;3582;51.506;11.948;2022-12-24T09:09:37;9.43;;;3.57;;
7080;SDS011;3582;51.506;11.948;2022-12-24T09:12:07;9.17;;;3.40;;
7080;SDS011;3582;51.506;11.948;2022-12-24T09:14:34;11.50;;;3.10;;
7080;SDS011;3582;51.506;11.948;2022-12-24T09:17:00;15.20;;;4.10;;
7080;SDS011;3582;51.506;11.948;2022-12-24T09:19:26;10.40;;;6.30;;
7080;SDS011;3582;51.506;11.948;2022-12-24T09:21:53;6.88;;;3.50;;
7080;SDS011;3582;51.506;11.948;2022-12-24T09:24:19;16.20;;;5.20;;
7080;SDS011;3582;51.506;11.948;2022-12-24T09:26:46;6.57;;;2.85;;
7080;SDS011;3582;51.506;11.948;2022-12-24T09:29:13;7.95;;;3.97;;
7080;SDS011;3582;51.506;11.948;2022-12-24T09:31:39;9.13;;;3.15;;
7080;SDS011;3582;51.506;11.948;2022-12-24T09:34:05;15.50;;;4.00;;
7080;SDS011;3582;51.506;11.948;2022-12-24T09:36:32;7.32;;;5.38;;
7080;SDS011;3582;51.506;11.948;2022-12-24T09:38:58;10.02;;;4.50;;
7080;SDS011;3582;51.506;11.948;2022-12-24T09:41:28;6.90;;;3.40;;
7080;SDS011;3582;51.506;11.948;2022-12-24T09:44:02;6.40;;;3.45;;
7080;SDS011;3582;51.506;11.948;2022-12-24T09:46:37;10.13;;;4.10;;
7080;SDS011;3582;51.506;11.948;2022-12-24T09:49:05;10.98;;;3.08;;
7080;SDS011;3582;51.506;11.948;2022-12-24T09:51:35;13.68;;;5.93;;
7080;SDS011;3582;51.506;11.948;2022-12-24T09:54:03;14.57;;;5.57;;
7080;SDS011;3582;51.506;11.948;2022-12-24T09:56:31;11.73;;;2.63;;
7080;SDS011;3582;51.506;11.948;2022-12-24T09:58:59;5.72;;;3.15;;
7080;SDS011;3582;51.506;11.948;2022-12-24T10:01:27;14.70;;;4.43;;
7080;SDS011;3582;51.506;11.948;2022-12-24T10:03:53;9.03;;;3.70;;
7080;SDS011;3582;51.506;11.948;2022-12-24T10:06:21;4.60;;;2.63;;
7080;SDS011;3582;51.506;11.948;2022-12-24T10:24:43;7.35;;;3.22;;
7080;SDS011;3582;51.506;11.948;2022-12-24T10:27:12;7.10;;;2.95;;
7080;SDS011;3582;51.506;11.948;2022-12-24T10:29:46;11.23;;;3.13;;
7080;SDS011;3582;51.506;11.948;2022-12-24T10:32:20;8.13;;;2.88;;
7080;SDS011;3582;51.506;11.948;2022-12-24T10:37:30;6.53;;;2.70;;
7080;SDS011;3582;51.506;11.948;2022-12-24T10:39:57;6.07;;;2.35;;
7080;SDS011;3582;51.506;11.948;2022-12-24T10:42:25;9.15;;;4.15;;
7080;SDS011;3582;51.506;11.948;2022-12-24T10:44:54;7.00;;;2.85;;
7080;SDS011;3582;51.506;11.948;2022-12-24T10:47:20;10.55;;;2.88;;
7080;SDS011;3582;51.506;11.948;2022-12-24T10:49:56;5.50;;;2.75;;
7080;SDS011;3582;51.506;11.948;2022-12-24T10:52:26;10.23;;;2.15;;
7080;SDS011;3582;51.506;11.948;2022-12-24T10:55:10;5.68;;;2.35;;
7080;SDS011;3582;51.506;11.948;2022-12-24T10:57:37;12.13;;;2.80;;
7080;SDS011;3582;51.506;11.948;2022-12-24T11:00:04;2.70;;;1.90;;
7080;SDS011;3582;51.506;11.948;2022-12-24T11:02:32;4.35;;;2.13;;
7080;SDS011;3582;51.506;11.948;2022-12-24T11:04:58;3.80;;;1.92;;
7080;SDS011;3582;51.506;11.948;2022-12-24T11:07:25;6.03;;;2.63;;
7080;SDS011;3582;51.506;11.948;2022-12-24T11:09:56;5.60;;;2.50;;
7080;SDS011;3582;51.506;11.948;2022-12-24T11:12:23;3.70;;;2.53;;
7080;SDS011;3582;51.506;11.948;2022-12-24T11:14:58;5.82;;;1.88;;
7080;SDS011;3582;51.506;11.948;2022-12-24T11:17:24;5.47;;;2.03;;
7080;SDS011;3582;51.506;11.948;2022-12-24T11:19:50;6.43;;;2.30;;
7080;SDS011;3582;51.506;11.948;2022-12-24T11:22:17;5.22;;;2.00;;
7080;SDS011;3582;51.506;11.948;2022-12-24T11:24:44;5.83;;;2.57;;
7080;SDS011;3582;51.506;11.948;2022-12-24T11:27:26;6.35;;;2.38;;
7080;SDS011;3582;51.506;11.948;2022-12-24T11:30:12;4.40;;;2.73;;
7080;SDS011;3582;51.506;11.948;2022-12-24T11:32:40;6.83;;;2.70;;
7080;SDS011;3582;51.506;11.948;2022-12-24T11:35:07;7.07;;;3.10;;
7080;SDS011;3582;51.506;11.948;2022-12-24T11:37:33;2.58;;;2.35;;
7080;SDS011;3582;51.506;11.948;2022-12-24T11:40:00;10.27;;;2.55;;
7080;SDS011;3582;51.506;11.948;2022-12-24T11:44:55;6.67;;;2.43;;
7080;SDS011;3582;51.506;11.948;2022-12-24T11:47:55;7.03;;;2.53;;
7080;SDS011;3582;51.506;11.948;2022-12-24T11:52:47;4.17;;;2.00;;
7080;SDS011;3582;51.506;11.948;2022-12-24T11:55:34;6.03;;;2.35;;
7080;SDS011;3582;51.506;11.948;2022-12-24T12:00:26;7.13;;;2.60;;
7080;SDS011;3582;51.506;11.948;2022-12-24T12:02:54;5.70;;;2.57;;
7080;SDS011;3582;51.506;11.948;2022-12-24T12:05:23;4.10;;;2.70;;
7080;SDS011;3582;51.506;11.948;2022-12-24T12:07:51;4.07;;;3.05;;
7080;SDS011;3582;51.506;11.948;2022-12-24T12:10:24;8.70;;;2.80;;
7080;SDS011;3582;51.506;11.948;2022-12-24T12:13:26;3.80;;;2.27;;
7080;SDS011;3582;51.506;11.948;2022-12-24T12:15:44;3.60;;;2.58;;
7080;SDS011;3582;51.506;11.948;2022-12-24T12:18:12;6.00;;;2.25;;
7080;SDS011;3582;51.506;11.948;2022-12-24T12:20:50;6.23;;;2.80;;
7080;SDS011;3582;51.506;11.948;2022-12-24T12:23:23;5.10;;;3.13;;
7080;SDS011;3582;51.506;11.948;2022-12-24T12:25:51;4.22;;;2.45;;
7080;SDS011;3582;51.506;11.948;2022-12-24T12:28:21;5.63;;;2.70;;
7080;SDS011;3582;51.506;11.948;2022-12-24T12:30:59;8.48;;;3.17;;
7080;SDS011;3582;51.506;11.948;2022-12-24T12:35:55;7.17;;;2.43;;
7080;SDS011;3582;51.506;11.948;2022-12-24T12:38:24;4.20;;;2.93;;
7080;SDS011;3582;51.506;11.948;2022-12-24T12:41:12;4.00;;;2.00;;
7080;SDS011;3582;51.506;11.948;2022-12-24T12:43:50;4.43;;;2.50;;
7080;SDS011;3582;51.506;11.948;2022-12-24T12:46:32;4.22;;;3.45;;
7080;SDS011;3582;51.506;11.948;2022-12-24T12:49:08;9.73;;;2.80;;
7080;SDS011;3582;51.506;11.948;2022-12-24T12:54:20;11.60;;;3.13;;
7080;SDS011;3582;51.506;11.948;2022-12-24T12:56:50;9.13;;;2.90;;
7080;SDS011;3582;51.506;11.948;2022-12-24T12:59:50;8.07;;;3.28;;
7080;SDS011;3582;51.506;11.948;2022-12-24T13:04:57;6.43;;;3.03;;
7080;SDS011;3582;51.506;11.948;2022-12-24T13:07:48;5.90;;;3.30;;
7080;SDS011;3582;51.506;11.948;2022-12-24T13:10:21;6.07;;;3.10;;
7080;SDS011;3582;51.506;11.948;2022-12-24T13:12:56;8.13;;;3.83;;
7080;SDS011;3582;51.506;11.948;2022-12-24T13:20:41;7.35;;;3.85;;
7080;SDS011;3582;51.506;11.948;2022-12-24T13:23:14;10.75;;;3.20;;
7080;SDS011;3582;51.506;11.948;2022-12-24T13:25:41;6.90;;;2.63;;
7080;SDS011;3582;51.506;11.948;2022-12-24T13:36:03;3.90;;;3.00;;
7080;SDS011;3582;51.506;11.948;2022-12-24T13:38:30;7.22;;;3.20;;
7080;SDS011;3582;51.506;11.948;2022-12-24T13:44:00;6.47;;;4.28;;
7080;SDS011;3582;51.506;11.948;2022-12-24T13:52:07;4.25;;;2.97;;
7080;SDS011;3582;51.506;11.948;2022-12-24T13:54:33;7.57;;;4.18;;
7080;SDS011;3582;51.506;11.948;2022-12-24T13:57:00;7.82;;;3.55;;
7080;SDS011;3582;51.506;11.948;2022-12-24T14:01:52;9.73;;;3.90;;
7080;SDS011;3582;51.506;11.948;2022-12-24T14:04:23;3.67;;;2.53;;
7080;SDS011;3582;51.506;11.948;2022-12-24T14:06:51;5.10;;;3.10;;
7080;SDS011;3582;51.506;11.948;2022-12-24T14:09:18;7.10;;;2.75;;
7080;SDS011;3582;51.506;11.948;2022-12-24T14:14:30;3.95;;;3.17;;
7080;SDS011;3582;51.506;11.948;2022-12-24T14:16:57;5.20;;;3.28;;
7080;SDS011;3582;51.506;11.948;2022-12-24T14:19:24;3.88;;;2.53;;
7080;SDS011;3582;51.506;11.948;2022-12-24T14:21:54;8.32;;;3.90;;
7080;SDS011;3582;51.506;11.948;2022-12-24T14:24:23;4.90;;;2.70;;
7080;SDS011;3582;51.506;11.948;2022-12-24T14:26:53;4.35;;;3.22;;
7080;SDS011;3582;51.506;11.948;2022-12-24T14:29:30;6.85;;;3.35;;
7080;SDS011;3582;51.506;11.948;2022-12-24T14:31:57;9.45;;;3.50;;
7080;SDS011;3582;51.506;11.948;2022-12-24T14:34:24;8.07;;;4.00;;
7080;SDS011;3582;51.506;11.948;2022-12-24T14:36:51;12.82;;;4.38;;
7080;SDS011;3582;51.506;11.948;2022-12-24T14:39:41;4.47;;;3.17;;
7080;SDS011;3582;51.506;11.948;2022-12-24T14:47:29;11.18;;;4.15;;
7080;SDS011;3582;51.506;11.948;2022-12-24T14:52:44;10.23;;;4.27;;
7080;SDS011;3582;51.506;11.948;2022-12-24T14:58:18;8.45;;;4.10;;
7080;SDS011;3582;51.506;11.948;2022-12-24T15:00:45;12.38;;;6.10;;
7080;SDS011;3582;51.506;11.948;2022-12-24T15:03:13;10.40;;;3.73;;
7080;SDS011;3582;51.506;11.948;2022-12-24T15:05:39;4.65;;;2.63;;
7080;SDS011;3582;51.506;11.948;2022-12-24T15:08:16;3.60;;;3.30;;
7080;SDS011;3582;51.506;11.948;2022-12-24T15:10:43;3.40;;;3.20;;
7080;SDS011;3582;51.506;11.948;2022-12-24T15:15:37;3.90;;;3.20;;
7080;SDS011;3582;51.506;11.948;2022-12-24T15:18:09;8.13;;;3.60;;
7080;SDS011;3582;51.506;11.948;2022-12-24T15:20:41;3.92;;;3.63;;
7080;SDS011;3582;51.506;11.948;2022-12-24T15:23:15;3.47;;;3.17;;
7080;SDS011;3582;51.506;11.948;2022-12-24T15:25:42;3.00;;;2.80;;
7080;SDS011;3582;51.506;11.948;2022-12-24T15:28:18;3.10;;;2.90;;
7080;SDS011;3582;51.506;11.948;2022-12-24T15:30:44;5.57;;;2.95;;
7080;SDS011;3582;51.506;11.948;2022-12-24T15:33:10;4.93;;;4.15;;
7080;SDS011;3582;51.506;11.948;2022-12-24T15:35:52;4.00;;;3.60;;
7080;SDS011;3582;51.506;11.948;2022-12-24T15:38:32;10.77;;;7.32;;
7080;SDS011;3582;51.506;11.948;2022-12-24T15:40:59;11.75;;;7.43;;
7080;SDS011;3582;51.506;11.948;2022-12-24T15:43:26;15.20;;;12.00;;
7080;SDS011;3582;51.506;11.948;2022-12-24T15:45:52;25.65;;;12.98;;
7080;SDS011;3582;51.506;11.948;2022-12-24T15:48:20;14.27;;;11.35;;
7080;SDS011;3582;51.506;11.948;2022-12-24T15:50:48;14.85;;;12.90;;
7080;SDS011;3582;51.506;11.948;2022-12-24T15:53:16;13.50;;;9.95;;
7080;SDS011;3582;51.506;11.948;2022-12-24T15:55:43;13.43;;;8.88;;
7080;SDS011;3582;51.506;11.948;2022-12-24T15:58:23;10.85;;;7.68;;
7080;SDS011;3582;51.506;11.948;2022-12-24T16:01:00;7.38;;;6.68;;
7080;SDS011;3582;51.506;11.948;2022-12-24T16:03:27;8.75;;;7.35;;
7080;SDS011;3582;51.506;11.948;2022-12-24T16:05:59;11.93;;;7.87;;
7080;SDS011;3582;51.506;11.948;2022-12-24T16:08:59;12.95;;;9.07;;
7080;SDS011;3582;51.506;11.948;2022-12-24T16:11:21;11.93;;;9.10;;
7080;SDS011;3582;51.506;11.948;2022-12-24T16:16:14;9.07;;;7.40;;
7080;SDS011;3582;51.506;11.948;2022-12-24T16:18:56;17.52;;;9.70;;
7080;SDS011;3582;51.506;11.948;2022-12-24T16:21:23;26.15;;;10.52;;
7080;SDS011;3582;51.506;11.948;2022-12-24T16:23:51;14.98;;;9.57;;
7080;SDS011;3582;51.506;11.948;2022-12-24T16:26:17;13.65;;;7.50;;
7080;SDS011;3582;51.506;11.948;2022-12-24T16:28:43;17.98;;;9.32;;
7080;SDS011;3582;51.506;11.948;2022-12-24T16:31:26;10.30;;;7.80;;
7080;SDS011;3582;51.506;11.948;2022-12-24T16:33:53;21.42;;;9.25;;
7080;SDS011;3582;51.506;11.948;2022-12-24T16:36:20;12.73;;;8.50;;
7080;SDS011;3582;51.506;11.948;2022-12-24T16:38:45;17.03;;;8.43;;
7080;SDS011;3582;51.506;11.948;2022-12-24T16:41:38;15.05;;;6.35;;
7080;SDS011;3582;51.506;11.948;2022-12-24T16:44:22;15.70;;;7.75;;
7080;SDS011;3582;51.506;11.948;2022-12-24T16:46:48;14.77;;;8.53;;